Tropical Cyclones
[Index]
Main Index Home Page Stock Weather Photos Extreme Storms Discussion Storm News and Storm Chasing Reports Tropical Cyclones / Hurricanes / Typhoons Weather Data and Links Wild Fires / Bushfires Weather Observation Techniques Weather Picture Catalogue Tornado Pictures and Reports Stock Video Footage and DVDs for sale
Season 1966-1967 Tropical Cyclone 196707 Track Map
Season 1966-1967 Summaries: [BoM-AU] [JTWC-AU] [JTWC-SIO] [JTWC-SPAC] [JTWC-SH]
<<- Previous TC | JTWC 1966-1967 Season | Next TC ->>

click for intensity scale information  Lat/long Grid: Show Hide

 Date Labels: Show Hide

Joint Typhoon Warning Centre Cyclone Data

Name: 196707
Number: 622 / 6707

21 Dec 1966 18:00 UTC to 02 Jan 1967 18:00 UTC

    date/time    lat    long     hPa   cat  kts
1966-12-21 18   12.5    87.8                              
1966-12-22 00   13.3    87.4                              
1966-12-22 06   13.8    87.1                              
1966-12-22 12   14.0    86.9                              
1966-12-22 18   14.2    86.8                              
1966-12-23 00   14.5    86.6                              
1966-12-23 06   14.8    85.9                              
1966-12-23 12   15.5    84.8                              
1966-12-23 18   16.2    83.6                              
1966-12-24 00   16.6    82.5                              
1966-12-24 06   16.8    81.4                              
1966-12-24 12   16.9    80.3                              
1966-12-24 18   17.1    79.2                              
1966-12-25 00   17.3    78.9                              
1966-12-25 06   17.5    78.5                              
1966-12-25 12   17.7    77.3                              
1966-12-25 18   17.9    76.1                              
1966-12-26 00   18.1    74.9                              
1966-12-26 06   18.2    73.7                              
1966-12-26 12   18.2    72.9                              
1966-12-26 18   18.3    72.2                              
1966-12-27 00   18.3    71.4                              
1966-12-27 06   18.4    70.6                              
1966-12-27 12   18.4    69.8                              
1966-12-27 18   18.5    69.0                              
1966-12-28 00   18.7    68.4                              
1966-12-28 06   18.9    67.9                              
1966-12-28 12   19.0    67.4                              
1966-12-28 18   19.0    66.8                              
1966-12-29 00   19.0    66.2                              
1966-12-29 06   19.0    65.5                              
1966-12-29 12   19.0    64.7                              
1966-12-29 18   19.1    64.0                              
1966-12-30 00   19.1    63.7                              
1966-12-30 06   19.0    63.5                              
1966-12-30 12   18.6    63.0                              
1966-12-30 18   18.1    62.4                              
1966-12-31 00   17.9    61.7                              
1966-12-31 06   17.8    61.0                              
1966-12-31 12   17.7    60.1                              
1966-12-31 18   17.7    59.3                              
1967-01-01 00   17.7    58.7                              
1967-01-01 06   17.8    58.2                              
1967-01-01 12   18.0    57.8                              
1967-01-01 18   18.3    57.5                              
1967-01-02 00   18.4    57.4                              
1967-01-02 06   18.6    57.3                              
1967-01-02 12   18.9    57.1                              
1967-01-02 18   19.2    56.8                              
Winds are 1-min average.

Tropical cyclone tracks developed by Michael Bath using data from the Joint Typhoon Warning Centre Best Tracks and Google Maps.


[Australian Severe Weather index] [Copyright Notice] [Email Contacts] [Search This Site] [Privacy Policy]
Document: tropical_cyclone_196707.htm Updated: 18 September 2016